createdAt,value
2023-03-29T04:00:43.681Z,5.45
2023-03-29T04:01:44.509Z,5.46
2023-03-29T04:02:44.528Z,5.48
2023-03-29T04:03:44.518Z,5.53
2023-03-29T04:04:44.435Z,5.53
2023-03-29T04:05:44.452Z,5.54
2023-03-29T04:06:44.435Z,5.53
2023-03-29T04:07:44.459Z,5.51
2023-03-29T04:08:44.404Z,5.53
2023-03-29T04:09:44.390Z,5.53
2023-03-29T04:10:44.381Z,5.57
2023-03-29T04:11:44.393Z,5.56
2023-03-29T04:12:44.385Z,5.57
2023-03-29T04:13:44.367Z,5.53
2023-03-29T04:14:44.336Z,5.51
2023-03-29T04:15:44.358Z,5.51
2023-03-29T04:16:44.314Z,5.53
2023-03-29T04:17:44.424Z,5.53
2023-03-29T04:18:44.436Z,5.56
2023-03-29T04:19:44.374Z,5.56
2023-03-29T04:20:44.258Z,5.56
2023-03-29T04:21:44.259Z,5.57
2023-03-29T04:22:44.301Z,5.60
2023-03-29T04:23:44.244Z,5.61
2023-03-29T04:24:44.243Z,5.61
2023-03-29T04:25:44.259Z,5.61
2023-03-29T04:26:44.198Z,5.63
2023-03-29T04:27:44.230Z,5.63
2023-03-29T04:28:44.187Z,5.63
2023-03-29T04:29:44.242Z,5.72
2023-03-29T04:30:44.168Z,5.71
2023-03-29T04:31:44.249Z,5.67
2023-03-29T04:32:44.168Z,5.68
2023-03-29T04:33:44.151Z,5.67
2023-03-29T04:34:44.150Z,5.68
2023-03-29T04:35:44.123Z,5.67
2023-03-29T04:36:44.144Z,5.67
2023-03-29T04:37:44.115Z,5.67
2023-03-29T04:38:47.367Z,5.71
2023-03-29T04:39:44.108Z,5.68
2023-03-29T04:40:44.335Z,5.65
2023-03-29T04:41:44.119Z,5.71
2023-03-29T04:42:44.100Z,5.68
2023-03-29T04:43:44.110Z,5.71
2023-03-29T04:44:44.038Z,5.67
2023-03-29T04:45:44.098Z,5.71
2023-03-29T04:46:44.162Z,5.74
2023-03-29T04:47:44.135Z,5.76
2023-03-29T04:48:43.988Z,5.76
2023-03-29T04:49:43.999Z,5.78
2023-03-29T04:50:43.957Z,5.78
2023-03-29T04:51:43.965Z,5.78
2023-03-29T04:52:43.949Z,5.76
2023-03-29T04:53:43.946Z,5.75
2023-03-29T04:54:43.912Z,5.74
2023-03-29T04:55:43.908Z,5.71
2023-03-29T04:56:44.517Z,5.72
2023-03-29T04:57:43.900Z,5.74
2023-03-29T04:58:43.870Z,5.76
2023-03-29T04:59:43.867Z,5.76
2023-03-29T05:00:43.867Z,5.82
2023-03-29T05:01:43.851Z,5.86
2023-03-29T05:02:43.875Z,5.86
2023-03-29T05:03:43.888Z,5.89
2023-03-29T05:04:43.859Z,5.89
2023-03-29T05:05:43.803Z,5.90
2023-03-29T05:06:43.816Z,5.91
2023-03-29T05:07:43.795Z,5.96
2023-03-29T05:08:43.772Z,5.96
2023-03-29T05:09:43.786Z,5.94
2023-03-29T05:10:43.742Z,5.97
2023-03-29T05:11:43.743Z,6.00
2023-03-29T05:12:43.727Z,5.99
2023-03-29T05:13:43.710Z,5.97
2023-03-29T05:14:43.691Z,6.01
2023-03-29T05:15:43.693Z,6.00
2023-03-29T05:16:43.701Z,6.03
2023-03-29T05:17:43.716Z,6.04
2023-03-29T05:18:43.673Z,6.04
2023-03-29T05:19:43.638Z,6.03
2023-03-29T05:20:43.624Z,6.00
2023-03-29T05:21:45.430Z,6.00
2023-03-29T05:22:43.611Z,6.03
2023-03-29T05:23:43.636Z,6.00
2023-03-29T05:24:43.616Z,6.00
2023-03-29T05:25:43.586Z,6.01
2023-03-29T05:26:43.576Z,6.01
2023-03-29T05:27:43.592Z,6.01
2023-03-29T05:28:43.570Z,6.01
2023-03-29T05:29:43.537Z,6.04
2023-03-29T05:30:43.521Z,6.06
2023-03-29T05:31:43.624Z,6.06
2023-03-29T05:32:43.565Z,6.06
2023-03-29T05:33:43.516Z,6.11
2023-03-29T05:34:43.576Z,6.14
2023-03-29T05:35:43.496Z,6.15
2023-03-29T05:36:43.536Z,6.18
2023-03-29T05:37:43.484Z,6.18
2023-03-29T05:38:43.439Z,6.15
2023-03-29T05:39:43.432Z,6.22
2023-03-29T05:40:43.413Z,6.21
2023-03-29T05:41:43.440Z,6.22
2023-03-29T05:42:43.414Z,6.22
2023-03-29T05:43:43.409Z,6.22
2023-03-29T05:44:43.384Z,6.22
2023-03-29T05:45:43.445Z,6.25
2023-03-29T05:46:43.375Z,6.25
2023-03-29T05:47:43.423Z,6.30
2023-03-29T05:48:43.352Z,6.33
2023-03-29T05:49:43.332Z,6.36
2023-03-29T05:50:44.423Z,6.34
2023-03-29T05:51:43.328Z,6.41
2023-03-29T05:52:43.332Z,6.43
2023-03-29T05:53:43.351Z,6.46
2023-03-29T05:54:43.272Z,6.44
2023-03-29T05:55:43.262Z,6.48
2023-03-29T05:56:43.288Z,6.48
2023-03-29T05:57:43.259Z,6.46
2023-03-29T05:58:43.264Z,6.48
2023-03-29T05:59:43.260Z,6.46
2023-03-29T06:00:43.276Z,6.46
2023-03-29T06:01:43.219Z,6.49
2023-03-29T06:02:43.357Z,6.49
2023-03-29T06:03:43.398Z,6.52
2023-03-29T06:04:43.226Z,6.52
2023-03-29T06:05:43.181Z,6.51
2023-03-29T06:06:43.155Z,6.48
2023-03-29T06:07:43.147Z,6.51
2023-03-29T06:08:43.142Z,6.52
2023-03-29T06:09:43.136Z,6.56
2023-03-29T06:10:43.115Z,6.56
2023-03-29T06:11:43.145Z,6.59
2023-03-29T06:12:43.118Z,6.61
2023-03-29T06:13:43.100Z,6.64
2023-03-29T06:14:43.080Z,6.64
2023-03-29T06:15:43.069Z,6.67
2023-03-29T06:16:43.096Z,6.69
2023-03-29T06:17:43.134Z,6.71
2023-03-29T06:18:43.072Z,6.74
2023-03-29T06:19:43.018Z,6.73
2023-03-29T06:20:43.023Z,6.79
2023-03-29T06:21:42.987Z,6.81
2023-03-29T06:22:42.997Z,6.80
2023-03-29T06:23:42.976Z,6.81
2023-03-29T06:24:42.985Z,6.84
2023-03-29T06:25:42.943Z,6.87
2023-03-29T06:26:42.964Z,6.87
2023-03-29T06:27:42.960Z,6.85
2023-03-29T06:28:42.962Z,6.81
2023-03-29T06:29:42.932Z,6.79
2023-03-29T06:30:42.931Z,6.77
2023-03-29T06:31:42.980Z,6.76
2023-03-29T06:32:42.936Z,6.80
2023-03-29T06:33:42.863Z,6.76
2023-03-29T06:34:42.922Z,6.74
2023-03-29T06:35:42.879Z,6.73
2023-03-29T06:36:42.854Z,6.73
2023-03-29T06:37:42.832Z,6.71
2023-03-29T06:38:42.896Z,6.76
2023-03-29T06:39:42.817Z,6.71
2023-03-29T06:40:42.795Z,6.74
2023-03-29T06:41:42.793Z,6.80
2023-03-29T06:42:42.794Z,6.79
2023-03-29T06:43:42.772Z,6.77
2023-03-29T06:44:42.755Z,6.73
2023-03-29T06:45:42.749Z,6.77
2023-03-29T06:46:42.746Z,6.79
2023-03-29T06:47:42.780Z,6.80
2023-03-29T06:48:42.736Z,6.80
2023-03-29T06:49:42.712Z,6.79
2023-03-29T06:50:42.687Z,6.85
2023-03-29T06:51:42.692Z,6.87
2023-03-29T06:52:42.691Z,6.88
2023-03-29T06:53:42.699Z,6.92
2023-03-29T06:54:42.719Z,7.02
2023-03-29T06:55:42.636Z,7.09
2023-03-29T06:56:42.857Z,7.10
2023-03-29T06:57:42.620Z,7.16
2023-03-29T06:58:42.691Z,7.21
2023-03-29T06:59:42.611Z,7.21
2023-03-29T07:00:42.588Z,7.15
2023-03-29T07:01:42.632Z,7.21
2023-03-29T07:02:42.603Z,7.21
2023-03-29T07:03:44.130Z,7.25
2023-03-29T07:04:42.644Z,7.21
2023-03-29T07:05:42.621Z,7.23
2023-03-29T07:06:42.517Z,7.30
2023-03-29T07:07:42.574Z,7.35
2023-03-29T07:08:42.502Z,7.46
2023-03-29T07:09:42.510Z,7.60
2023-03-29T07:10:42.741Z,7.67
2023-03-29T07:11:42.477Z,7.55
2023-03-29T07:12:42.468Z,7.60
2023-03-29T07:13:42.694Z,7.61
2023-03-29T07:14:43.185Z,7.57
2023-03-29T07:15:42.434Z,7.57
2023-03-29T07:16:42.496Z,7.63
2023-03-29T07:17:42.439Z,7.72
2023-03-29T07:18:42.396Z,7.85
2023-03-29T07:19:42.386Z,7.93
2023-03-29T07:20:42.419Z,7.98
2023-03-29T07:21:42.358Z,7.85
2023-03-29T07:22:42.359Z,7.93
2023-03-29T07:23:42.420Z,8.02
2023-03-29T07:24:42.342Z,8.05
2023-03-29T07:25:42.326Z,8.15
2023-03-29T07:26:52.250Z,8.18
2023-03-29T07:27:42.312Z,8.18
2023-03-29T07:28:42.275Z,8.25
2023-03-29T07:29:42.611Z,8.30
2023-03-29T07:30:42.277Z,8.26
2023-03-29T07:31:42.243Z,8.23
2023-03-29T07:32:42.370Z,8.23
2023-03-29T07:33:42.264Z,8.22
2023-03-29T07:34:42.217Z,8.25
2023-03-29T07:35:42.255Z,8.26
2023-03-29T07:36:42.204Z,8.28
2023-03-29T07:37:42.197Z,8.34
2023-03-29T07:38:42.171Z,8.36
2023-03-29T07:39:42.150Z,8.40
2023-03-29T07:40:42.180Z,8.44
2023-03-29T07:41:42.163Z,8.48
2023-03-29T07:42:42.137Z,8.47
2023-03-29T07:43:42.123Z,8.45
2023-03-29T07:44:42.127Z,8.45
2023-03-29T07:45:42.148Z,8.52
2023-03-29T07:46:42.081Z,8.50
2023-03-29T07:47:42.110Z,8.56
2023-03-29T07:48:42.083Z,8.62
2023-03-29T07:49:42.051Z,8.50
2023-03-29T07:50:42.045Z,8.55
2023-03-29T07:51:42.011Z,8.50
2023-03-29T07:52:42.048Z,8.50
2023-03-29T07:53:41.999Z,8.55
2023-03-29T07:54:42.002Z,8.47
2023-03-29T07:55:41.969Z,8.52
2023-03-29T07:56:42.040Z,8.59
2023-03-29T07:57:41.985Z,8.65
2023-03-29T07:58:41.942Z,8.66
2023-03-29T07:59:41.968Z,8.73
2023-03-29T08:00:41.969Z,8.71
2023-03-29T08:01:41.930Z,8.62
2023-03-29T08:02:41.926Z,8.61
2023-03-29T08:03:41.914Z,8.66
2023-03-29T08:04:41.909Z,8.74
2023-03-29T08:05:42.278Z,8.74
2023-03-29T08:06:41.884Z,8.81
2023-03-29T08:07:41.854Z,8.91
2023-03-29T08:08:41.857Z,8.98
2023-03-29T08:09:41.846Z,8.99
2023-03-29T08:10:41.851Z,9.10
2023-03-29T08:11:41.832Z,9.17
2023-03-29T08:12:41.814Z,9.10
2023-03-29T08:13:41.817Z,9.01
2023-03-29T08:14:41.805Z,8.98
2023-03-29T08:15:41.764Z,9.02
2023-03-29T08:16:41.826Z,9.01
2023-03-29T08:17:41.769Z,8.99
2023-03-29T08:18:41.786Z,9.02
2023-03-29T08:19:41.728Z,9.13
2023-03-29T08:20:41.768Z,9.26
2023-03-29T08:21:41.708Z,9.42
2023-03-29T08:22:41.706Z,9.48
2023-03-29T08:23:41.716Z,9.46
2023-03-29T08:24:41.705Z,9.48
2023-03-29T08:25:41.703Z,9.50
2023-03-29T08:26:41.659Z,9.53
2023-03-29T08:27:41.644Z,9.58
2023-03-29T08:28:41.628Z,9.60
2023-03-29T08:29:41.681Z,9.65
2023-03-29T08:30:41.643Z,9.74
2023-03-29T08:31:41.636Z,9.87
2023-03-29T08:32:41.632Z,9.97
2023-03-29T08:33:41.573Z,10.05
2023-03-29T08:34:41.561Z,10.05
2023-03-29T08:35:41.567Z,10.05
2023-03-29T08:36:41.585Z,10.01
2023-03-29T08:37:41.555Z,10.05
2023-03-29T08:38:41.538Z,10.12
2023-03-29T08:39:41.501Z,10.08
2023-03-29T08:40:41.506Z,9.84
2023-03-29T08:41:41.502Z,9.71
2023-03-29T08:42:41.484Z,9.69
2023-03-29T08:43:41.482Z,9.78
2023-03-29T08:44:41.454Z,9.79
2023-03-29T08:45:41.452Z,9.78
2023-03-29T08:46:41.523Z,9.76
2023-03-29T08:47:41.482Z,9.75
2023-03-29T08:48:41.431Z,9.68
2023-03-29T08:49:41.440Z,9.74
2023-03-29T08:50:41.401Z,9.86
2023-03-29T08:51:41.400Z,9.91
2023-03-29T08:52:41.374Z,9.97
2023-03-29T08:53:41.378Z,9.96
2023-03-29T08:54:41.363Z,9.94
2023-03-29T08:55:41.356Z,9.94
2023-03-29T08:56:41.360Z,10.02
2023-03-29T08:57:41.335Z,10.14
2023-03-29T08:58:41.323Z,10.08
2023-03-29T08:59:41.300Z,10.11
2023-03-29T09:00:41.316Z,10.17
2023-03-29T09:01:41.317Z,10.29
2023-03-29T09:02:41.349Z,10.42
2023-03-29T09:03:41.301Z,10.45
2023-03-29T09:04:41.258Z,10.47
2023-03-29T09:05:41.254Z,10.51
2023-03-29T09:06:41.253Z,10.52
2023-03-29T09:07:41.244Z,10.47
2023-03-29T09:08:41.217Z,10.55
2023-03-29T09:09:41.203Z,10.44
2023-03-29T09:10:41.207Z,10.52
2023-03-29T09:11:41.170Z,10.56
2023-03-29T09:12:41.713Z,10.45
2023-03-29T09:13:41.271Z,10.48
2023-03-29T09:14:41.144Z,10.48
2023-03-29T09:15:41.160Z,10.53
2023-03-29T09:16:41.171Z,10.56
2023-03-29T09:17:41.159Z,10.55
2023-03-29T09:18:41.125Z,10.56
2023-03-29T09:19:41.119Z,10.44
2023-03-29T09:20:41.080Z,10.55
2023-03-29T09:21:41.069Z,10.52
2023-03-29T09:22:41.059Z,10.63
2023-03-29T09:23:41.065Z,10.73
2023-03-29T09:24:41.054Z,10.84
2023-03-29T09:25:52.528Z,10.94
2023-03-29T09:26:41.014Z,10.96
2023-03-29T09:27:41.017Z,11.14
2023-03-29T09:28:41.003Z,11.57
2023-03-29T09:29:40.982Z,11.83
2023-03-29T09:30:40.976Z,11.65
2023-03-29T09:31:41.058Z,11.43
2023-03-29T09:32:41.091Z,11.39
2023-03-29T09:33:40.980Z,11.37
2023-03-29T09:34:40.939Z,11.39
2023-03-29T09:35:40.941Z,11.40
2023-03-29T09:36:40.908Z,11.46
2023-03-29T09:37:40.917Z,11.61
2023-03-29T09:38:40.920Z,11.65
2023-03-29T09:39:40.873Z,11.47
2023-03-29T09:40:40.904Z,11.47
2023-03-29T09:41:40.849Z,11.27
2023-03-29T09:42:40.875Z,11.25
2023-03-29T09:43:40.843Z,11.17
2023-03-29T09:44:40.825Z,11.15
2023-03-29T09:45:40.849Z,11.17
2023-03-29T09:46:40.803Z,11.06
2023-03-29T09:47:40.883Z,11.17
2023-03-29T09:48:40.802Z,11.18
2023-03-29T09:49:40.874Z,11.22
2023-03-29T09:50:40.832Z,11.25
2023-03-29T09:51:40.767Z,11.25
2023-03-29T09:52:40.806Z,11.40
2023-03-29T09:53:40.737Z,11.35
2023-03-29T09:54:40.707Z,11.32
2023-03-29T09:55:40.705Z,11.29
2023-03-29T09:56:40.801Z,11.37
2023-03-29T09:57:40.692Z,11.27
2023-03-29T09:58:40.719Z,11.19
2023-03-29T09:59:40.659Z,11.32
2023-03-29T10:00:40.644Z,11.27
2023-03-29T10:01:40.696Z,11.17
2023-03-29T10:02:40.667Z,11.10
2023-03-29T10:03:40.617Z,11.06
2023-03-29T10:04:40.664Z,11.10
2023-03-29T10:05:40.585Z,11.28
2023-03-29T10:06:40.578Z,11.39
2023-03-29T10:07:40.585Z,11.32
2023-03-29T10:08:40.587Z,11.15
2023-03-29T10:09:40.543Z,11.19
2023-03-29T10:10:40.578Z,11.24
2023-03-29T10:11:40.541Z,11.36
2023-03-29T10:12:40.539Z,11.42
2023-03-29T10:13:40.516Z,11.65
2023-03-29T10:14:40.478Z,11.67
2023-03-29T10:15:40.479Z,11.70
2023-03-29T10:16:40.613Z,11.67
2023-03-29T10:17:40.559Z,11.52
2023-03-29T10:18:40.485Z,11.36
2023-03-29T10:19:40.433Z,11.22
2023-03-29T10:20:40.435Z,11.00
2023-03-29T10:21:40.403Z,10.76
2023-03-29T10:22:40.389Z,10.67
2023-03-29T10:23:40.396Z,10.71
2023-03-29T10:24:40.366Z,10.68
2023-03-29T10:25:42.332Z,10.86
2023-03-29T10:26:40.385Z,10.99
2023-03-29T10:27:40.358Z,10.97
2023-03-29T10:28:40.358Z,10.82
2023-03-29T10:29:40.316Z,10.86
2023-03-29T10:30:40.348Z,10.91
2023-03-29T10:31:40.308Z,10.86
2023-03-29T10:32:40.360Z,10.79
2023-03-29T10:33:40.308Z,10.71
2023-03-29T10:34:40.305Z,10.70
2023-03-29T10:35:40.337Z,10.73
2023-03-29T10:36:40.314Z,10.86
2023-03-29T10:37:40.250Z,10.99
2023-03-29T10:38:40.228Z,11.11
2023-03-29T10:39:40.203Z,11.32
2023-03-29T10:40:40.196Z,11.37
2023-03-29T10:41:40.203Z,11.40
2023-03-29T10:42:40.172Z,11.32
2023-03-29T10:43:40.264Z,11.27
2023-03-29T10:44:40.174Z,11.02
2023-03-29T10:45:40.158Z,10.99
2023-03-29T10:46:40.398Z,10.82
2023-03-29T10:47:40.156Z,10.78
2023-03-29T10:48:40.122Z,10.82
2023-03-29T10:49:40.133Z,10.74
2023-03-29T10:50:40.095Z,10.64
2023-03-29T10:51:40.069Z,10.67
2023-03-29T10:52:40.081Z,10.79
2023-03-29T10:53:40.079Z,10.76
2023-03-29T10:54:40.034Z,10.73
2023-03-29T10:55:40.053Z,10.68
2023-03-29T10:56:40.281Z,10.71
2023-03-29T10:57:40.080Z,10.85
2023-03-29T10:58:40.026Z,10.78
2023-03-29T10:59:40.018Z,10.84
2023-03-29T11:00:39.980Z,10.91
2023-03-29T11:01:40.024Z,10.81
2023-03-29T11:02:40.020Z,10.74
2023-03-29T11:03:40.092Z,10.76
2023-03-29T11:04:40.678Z,10.78
2023-03-29T11:05:39.918Z,10.91
2023-03-29T11:06:39.905Z,10.91
2023-03-29T11:07:39.910Z,11.03
2023-03-29T11:08:39.946Z,11.14
2023-03-29T11:09:39.876Z,11.11
2023-03-29T11:10:39.925Z,11.19
2023-03-29T11:11:39.848Z,11.04
2023-03-29T11:12:39.842Z,10.91
2023-03-29T11:13:39.852Z,10.88
2023-03-29T11:14:39.828Z,10.81
2023-03-29T11:15:39.890Z,10.74
2023-03-29T11:16:39.801Z,10.78
2023-03-29T11:17:39.847Z,10.71
2023-03-29T11:18:39.802Z,10.61
2023-03-29T11:19:39.791Z,10.56
2023-03-29T11:20:39.758Z,10.59
2023-03-29T11:21:39.817Z,10.63
2023-03-29T11:22:39.720Z,10.68
2023-03-29T11:23:39.740Z,10.68
2023-03-29T11:24:39.746Z,10.63
2023-03-29T11:25:39.700Z,10.60
2023-03-29T11:26:39.676Z,10.67
2023-03-29T11:27:39.729Z,10.71
2023-03-29T11:28:39.705Z,10.60
2023-03-29T11:29:39.670Z,10.53
2023-03-29T11:30:39.632Z,10.55
2023-03-29T11:31:39.698Z,10.60
2023-03-29T11:32:39.649Z,10.70
2023-03-29T11:33:39.621Z,10.74
2023-03-29T11:34:39.602Z,10.73
2023-03-29T11:35:39.655Z,10.60
2023-03-29T11:36:39.577Z,10.53
2023-03-29T11:37:39.556Z,10.56
2023-03-29T11:38:39.597Z,10.63
2023-03-29T11:39:39.556Z,10.70
2023-03-29T11:40:39.523Z,10.76
2023-03-29T11:41:39.545Z,10.68
2023-03-29T11:42:39.522Z,10.70
2023-03-29T11:43:39.499Z,10.76
2023-03-29T11:44:39.511Z,10.91
2023-03-29T11:45:39.476Z,11.27
2023-03-29T11:46:39.503Z,11.62
2023-03-29T11:47:39.484Z,11.91
2023-03-29T11:48:39.465Z,12.38
2023-03-29T11:49:39.460Z,12.52
2023-03-29T11:50:39.437Z,12.45
2023-03-29T11:51:39.425Z,12.57
2023-03-29T11:52:39.392Z,12.62
2023-03-29T11:53:39.395Z,12.45
2023-03-29T11:54:39.401Z,12.41
2023-03-29T11:55:39.358Z,12.71
2023-03-29T11:56:39.383Z,12.78
2023-03-29T11:57:39.352Z,12.79
2023-03-29T11:58:39.409Z,12.82
2023-03-29T11:59:39.340Z,12.82
2023-03-29T12:00:39.307Z,12.77
2023-03-29T12:01:39.338Z,12.74
2023-03-29T12:02:39.410Z,12.77
2023-03-29T12:03:39.397Z,12.78
2023-03-29T12:04:39.275Z,12.82
2023-03-29T12:05:39.268Z,13.03
2023-03-29T12:06:39.249Z,13.05
2023-03-29T12:07:39.235Z,12.82
2023-03-29T12:08:39.241Z,12.71
2023-03-29T12:09:39.241Z,12.71
2023-03-29T12:10:39.195Z,12.57
2023-03-29T12:11:39.188Z,12.47
2023-03-29T12:12:39.164Z,12.23
2023-03-29T12:13:39.163Z,12.41
2023-03-29T12:14:39.164Z,12.41
2023-03-29T12:15:39.155Z,12.37
2023-03-29T12:16:39.195Z,12.56
2023-03-29T12:17:39.203Z,12.47
2023-03-29T12:18:39.100Z,12.67
2023-03-29T12:19:42.665Z,12.95
2023-03-29T12:20:39.102Z,13.10
2023-03-29T12:21:39.069Z,13.38
2023-03-29T12:22:39.072Z,13.97
2023-03-29T12:23:39.051Z,14.54
2023-03-29T12:24:39.053Z,15.31
2023-03-29T12:25:39.040Z,15.56
2023-03-29T12:26:39.012Z,15.75
2023-03-29T12:27:39.015Z,15.75
2023-03-29T12:28:39.002Z,15.07
2023-03-29T12:29:39.067Z,15.32
2023-03-29T12:30:38.981Z,15.92
2023-03-29T12:31:39.035Z,16.07
2023-03-29T12:32:39.034Z,15.84
2023-03-29T12:33:38.946Z,15.43
2023-03-29T12:34:38.948Z,15.29
2023-03-29T12:35:38.943Z,15.84
2023-03-29T12:36:38.920Z,16.57
2023-03-29T12:37:38.942Z,16.41
2023-03-29T12:38:38.904Z,17.49
2023-03-29T12:39:38.937Z,18.10
2023-03-29T12:40:38.871Z,18.08
2023-03-29T12:41:38.895Z,17.34
2023-03-29T12:42:38.859Z,16.85
2023-03-29T12:43:38.848Z,16.17
2023-03-29T12:44:38.837Z,16.57
2023-03-29T12:45:38.832Z,16.64
2023-03-29T12:46:38.849Z,15.93
2023-03-29T12:47:38.808Z,15.72
2023-03-29T12:48:38.788Z,15.86
2023-03-29T12:49:38.854Z,15.90
2023-03-29T12:50:38.759Z,16.08
2023-03-29T12:51:38.777Z,16.27
2023-03-29T12:52:38.741Z,16.25
2023-03-29T12:53:38.757Z,16.17
2023-03-29T12:54:38.725Z,15.69
2023-03-29T12:55:38.751Z,15.54
2023-03-29T12:56:38.725Z,15.02
2023-03-29T12:57:38.698Z,14.75
2023-03-29T12:58:38.690Z,14.95
2023-03-29T12:59:38.745Z,14.95
2023-03-29T13:00:38.751Z,14.81
2023-03-29T13:01:38.771Z,14.88
2023-03-29T13:02:38.904Z,14.83
2023-03-29T13:03:38.652Z,14.92
2023-03-29T13:04:38.612Z,15.09
2023-03-29T13:05:38.627Z,15.19
2023-03-29T13:06:38.590Z,14.96
2023-03-29T13:07:38.582Z,14.84
2023-03-29T13:08:38.563Z,14.88
2023-03-29T13:09:38.580Z,15.11
2023-03-29T13:10:38.537Z,15.13
2023-03-29T13:11:38.642Z,15.28
2023-03-29T13:12:38.513Z,15.31
2023-03-29T13:13:38.542Z,15.13
2023-03-29T13:14:38.570Z,14.84
2023-03-29T13:15:38.536Z,14.64
2023-03-29T13:16:38.557Z,14.58
2023-03-29T13:17:38.491Z,14.62
2023-03-29T13:18:38.467Z,14.55
2023-03-29T13:19:38.463Z,14.46
2023-03-29T13:20:38.456Z,14.33
2023-03-29T13:21:38.414Z,14.20
2023-03-29T13:22:38.415Z,14.21
2023-03-29T13:23:38.407Z,14.24
2023-03-29T13:24:38.397Z,14.25
2023-03-29T13:25:38.457Z,14.27
2023-03-29T13:26:38.365Z,14.35
2023-03-29T13:27:38.352Z,14.39
2023-03-29T13:28:38.348Z,14.52
2023-03-29T13:29:38.369Z,14.54
2023-03-29T13:30:38.347Z,14.60
2023-03-29T13:31:38.386Z,14.52
2023-03-29T13:32:38.367Z,14.42
2023-03-29T13:33:38.286Z,14.52
2023-03-29T13:34:38.298Z,14.54
2023-03-29T13:35:38.370Z,14.57
2023-03-29T13:36:38.272Z,14.61
2023-03-29T13:37:38.264Z,14.69
2023-03-29T13:38:38.248Z,14.75
2023-03-29T13:39:38.236Z,14.83
2023-03-29T13:40:38.231Z,14.92
2023-03-29T13:41:38.229Z,14.96
2023-03-29T13:42:38.206Z,15.14
2023-03-29T13:43:38.199Z,15.29
2023-03-29T13:44:38.195Z,15.50
2023-03-29T13:45:38.193Z,15.29
2023-03-29T13:46:38.254Z,15.32
2023-03-29T13:47:38.188Z,15.20
2023-03-29T13:48:38.211Z,15.13
2023-03-29T13:49:38.120Z,15.14
2023-03-29T13:50:38.143Z,15.19
2023-03-29T13:51:38.116Z,15.16
2023-03-29T13:52:38.117Z,15.31
2023-03-29T13:53:38.087Z,15.38
2023-03-29T13:54:38.083Z,15.29
2023-03-29T13:55:38.468Z,15.25
2023-03-29T13:56:38.122Z,14.98
2023-03-29T13:57:38.044Z,14.89
2023-03-29T13:58:38.044Z,14.94
2023-03-29T13:59:38.068Z,14.86
2023-03-29T14:00:38.050Z,14.78
2023-03-29T14:01:38.062Z,14.73
2023-03-29T14:02:38.069Z,14.65
2023-03-29T14:03:38.023Z,14.55
2023-03-29T14:04:38.028Z,14.52
2023-03-29T14:05:37.960Z,14.42
2023-03-29T14:06:37.944Z,14.36
2023-03-29T14:07:37.943Z,14.33
2023-03-29T14:08:37.910Z,14.22
2023-03-29T14:09:37.915Z,14.12
2023-03-29T14:10:37.921Z,14.10
2023-03-29T14:11:37.876Z,14.07
2023-03-29T14:12:41.158Z,14.06
2023-03-29T14:13:37.862Z,13.96
2023-03-29T14:14:42.643Z,13.99
2023-03-29T14:15:37.857Z,13.89
2023-03-29T14:16:37.980Z,13.87
2023-03-29T14:17:37.921Z,13.85
2023-03-29T14:18:37.821Z,13.78
2023-03-29T14:19:37.839Z,13.78
2023-03-29T14:20:37.789Z,13.79
2023-03-29T14:21:37.763Z,13.82
2023-03-29T14:22:37.797Z,13.79
2023-03-29T14:23:37.806Z,13.81
2023-03-29T14:24:37.746Z,13.82
2023-03-29T14:25:37.747Z,13.85
2023-03-29T14:26:37.724Z,13.78
2023-03-29T14:27:37.703Z,13.73
2023-03-29T14:28:37.725Z,13.71
2023-03-29T14:29:37.748Z,13.75
2023-03-29T14:30:37.697Z,13.77
2023-03-29T14:31:37.764Z,13.78
2023-03-29T14:32:37.719Z,13.79
2023-03-29T14:33:37.629Z,13.77
2023-03-29T14:34:37.632Z,13.77
2023-03-29T14:35:37.730Z,13.78
2023-03-29T14:36:37.681Z,13.79
2023-03-29T14:37:37.593Z,13.79
2023-03-29T14:38:37.597Z,13.77
2023-03-29T14:39:37.595Z,13.78
2023-03-29T14:40:37.588Z,13.79
2023-03-29T14:41:37.769Z,13.82
2023-03-29T14:42:37.537Z,13.84
2023-03-29T14:43:37.561Z,13.88
2023-03-29T14:44:37.547Z,13.92
2023-03-29T14:45:37.624Z,14.00
2023-03-29T14:46:37.795Z,14.12
2023-03-29T14:47:37.505Z,14.21
2023-03-29T14:48:37.505Z,14.32
2023-03-29T14:49:37.461Z,14.39
2023-03-29T14:50:37.457Z,14.47
2023-03-29T14:51:37.463Z,14.75
2023-03-29T14:52:37.444Z,14.92
2023-03-29T14:53:37.420Z,15.13
2023-03-29T14:54:37.483Z,15.25
2023-03-29T14:55:37.394Z,15.16
2023-03-29T14:56:37.424Z,15.20
2023-03-29T14:57:37.374Z,15.32
2023-03-29T14:58:37.365Z,15.41
2023-03-29T14:59:37.358Z,15.43
2023-03-29T15:00:37.360Z,15.36
2023-03-29T15:01:37.409Z,15.34
2023-03-29T15:02:37.459Z,15.25
2023-03-29T15:03:37.446Z,15.19
2023-03-29T15:04:37.342Z,15.27
2023-03-29T15:05:37.298Z,15.34
2023-03-29T15:06:37.318Z,15.35
2023-03-29T15:07:37.301Z,15.17
2023-03-29T15:08:37.275Z,15.09
2023-03-29T15:09:37.248Z,15.11
2023-03-29T15:10:37.269Z,15.16
2023-03-29T15:11:37.867Z,15.16
2023-03-29T15:12:37.237Z,15.02
2023-03-29T15:13:37.195Z,15.09
2023-03-29T15:14:37.202Z,15.14
2023-03-29T15:15:37.260Z,15.09
2023-03-29T15:16:37.215Z,15.19
2023-03-29T15:17:50.365Z,15.16
2023-03-29T15:18:37.191Z,14.99
2023-03-29T15:19:37.138Z,15.03
2023-03-29T15:20:37.160Z,15.11
2023-03-29T15:21:37.122Z,15.02
2023-03-29T15:22:37.126Z,14.92
2023-03-29T15:23:37.201Z,14.96
2023-03-29T15:24:37.116Z,14.99
2023-03-29T15:25:37.098Z,15.03
2023-03-29T15:26:37.075Z,14.95
2023-03-29T15:27:37.049Z,15.06
2023-03-29T15:28:37.054Z,15.06
2023-03-29T15:29:37.066Z,15.09
2023-03-29T15:30:37.058Z,15.07
2023-03-29T15:31:37.140Z,15.07
2023-03-29T15:32:37.042Z,15.13
2023-03-29T15:33:37.156Z,15.13
2023-03-29T15:34:36.974Z,15.10
2023-03-29T15:35:36.986Z,15.06
2023-03-29T15:36:36.997Z,14.99
2023-03-29T15:37:36.973Z,14.98
2023-03-29T15:38:43.835Z,14.96
2023-03-29T15:39:36.928Z,14.94
2023-03-29T15:40:36.964Z,14.88
2023-03-29T15:41:36.896Z,14.91
2023-03-29T15:42:36.922Z,14.92
2023-03-29T15:43:36.877Z,14.94
2023-03-29T15:44:37.786Z,14.84
2023-03-29T15:45:36.870Z,14.69
2023-03-29T15:46:36.897Z,14.80
2023-03-29T15:47:36.853Z,14.80
2023-03-29T15:48:41.109Z,14.75
2023-03-29T15:49:37.843Z,14.73
2023-03-29T15:50:36.848Z,14.78
2023-03-29T15:51:36.821Z,14.78
2023-03-29T15:52:36.779Z,14.69
2023-03-29T15:53:36.769Z,14.72
2023-03-29T15:54:36.772Z,14.64
2023-03-29T15:55:36.810Z,14.62
2023-03-29T15:56:36.754Z,14.68
2023-03-29T15:57:36.904Z,14.72
2023-03-29T15:58:36.726Z,14.77
2023-03-29T15:59:36.725Z,14.86
2023-03-29T16:00:36.737Z,14.89
2023-03-29T16:01:36.699Z,14.92
2023-03-29T16:02:36.838Z,14.92
2023-03-29T16:03:36.691Z,14.92
2023-03-29T16:04:36.685Z,14.89
2023-03-29T16:05:36.630Z,14.88
2023-03-29T16:06:36.625Z,14.80
2023-03-29T16:07:36.658Z,14.78
2023-03-29T16:08:36.612Z,14.88
2023-03-29T16:09:36.604Z,14.86
2023-03-29T16:10:36.586Z,14.81
2023-03-29T16:11:36.570Z,14.86
2023-03-29T16:12:36.581Z,14.65
2023-03-29T16:13:36.598Z,14.65
2023-03-29T16:14:36.545Z,14.78
2023-03-29T16:15:36.582Z,14.65
2023-03-29T16:16:36.544Z,14.64
2023-03-29T16:17:36.572Z,14.65
2023-03-29T16:18:36.541Z,14.61
2023-03-29T16:19:36.507Z,14.61
2023-03-29T16:20:36.489Z,14.57
2023-03-29T16:21:36.471Z,14.55
2023-03-29T16:22:36.465Z,14.60
2023-03-29T16:23:36.431Z,14.54
2023-03-29T16:24:36.444Z,14.47
2023-03-29T16:25:36.430Z,14.46
2023-03-29T16:26:36.421Z,14.39
2023-03-29T16:27:36.450Z,14.35
2023-03-29T16:28:36.597Z,14.36
2023-03-29T16:29:36.379Z,14.32
2023-03-29T16:30:36.378Z,14.28
2023-03-29T16:31:36.554Z,14.27
2023-03-29T16:32:36.392Z,14.25
2023-03-29T16:33:36.342Z,14.22
2023-03-29T16:34:36.325Z,14.17
2023-03-29T16:35:36.357Z,14.10
2023-03-29T16:36:36.313Z,14.07
2023-03-29T16:37:36.286Z,14.04
2023-03-29T16:38:36.314Z,13.97
2023-03-29T16:39:36.268Z,14.00
2023-03-29T16:40:36.271Z,13.99
2023-03-29T16:41:36.390Z,14.03
2023-03-29T16:42:36.236Z,13.95
2023-03-29T16:43:36.222Z,13.91
2023-03-29T16:44:36.229Z,13.88
2023-03-29T16:45:36.214Z,13.87
2023-03-29T16:46:36.251Z,13.85
2023-03-29T16:47:36.225Z,13.84
2023-03-29T16:48:36.167Z,13.81
2023-03-29T16:49:37.163Z,13.79
2023-03-29T16:50:36.194Z,13.82
2023-03-29T16:51:36.158Z,13.82
2023-03-29T16:52:36.148Z,13.88
2023-03-29T16:53:36.123Z,13.88
2023-03-29T16:54:36.382Z,13.87
2023-03-29T16:55:36.124Z,13.85
2023-03-29T16:56:36.141Z,13.84
2023-03-29T16:57:36.106Z,13.81
2023-03-29T16:58:36.088Z,13.81
2023-03-29T16:59:36.057Z,13.82
2023-03-29T17:00:36.040Z,13.78
2023-03-29T17:01:36.123Z,13.79
2023-03-29T17:02:36.030Z,13.78